Time;durP1;ratioP1;P1;durP2;ratioP2;P2;SDS_P1;SDS_P2;PMS_P1;PMS_P2;Temp;Humidity;BMP_temperature;BMP_pressure;BME280_temperature;BME280_humidity;BME280_pressure;Samples;Min_cycle;Max_cycle;Signal;HPM_P1;HPM_P2
2022/07/01 00:01:30;;;;;;;1.00;1.00;;;;;;;15.30;85.36;95968.75;5088506;28;20032;-68
2022/07/01 00:03:56;;;;;;;1.25;0.90;;;;;;;15.33;85.22;95973.72;5086218;28;20042;-68
2022/07/01 00:06:22;;;;;;;1.00;1.00;;;;;;;15.33;85.56;95969.28;5087945;28;20036;-67
2022/07/01 00:08:47;;;;;;;1.05;1.05;;;;;;;15.36;85.63;95980.53;5086589;28;20106;-68
2022/07/01 00:11:14;;;;;;;0.90;0.90;;;;;;;15.36;85.27;95986.66;5084194;28;20024;-68
2022/07/01 00:13:39;;;;;;;1.00;0.95;;;;;;;15.38;84.89;95987.34;5079229;28;20021;-68
2022/07/01 00:16:05;;;;;;;1.35;1.13;;;;;;;15.42;84.71;95986.03;5082617;28;20016;-68
2022/07/01 00:18:30;;;;;;;0.90;0.90;;;;;;;15.48;84.43;95987.19;5075122;28;20016;-68
2022/07/01 00:20:56;;;;;;;1.95;1.17;;;;;;;15.51;84.79;95988.66;5078657;28;20029;-68
2022/07/01 00:23:21;;;;;;;0.90;0.90;;;;;;;15.44;85.26;95994.66;5085095;28;20491;-68
2022/07/01 00:25:47;;;;;;;6.95;1.00;;;;;;;15.43;85.41;96002.75;5085053;28;20039;-68
2022/07/01 00:28:12;;;;;;;1.20;1.10;;;;;;;15.37;84.43;96004.25;5087582;28;20032;-68
2022/07/01 00:30:38;;;;;;;0.93;0.93;;;;;;;15.28;85.63;96003.41;5083163;28;20036;-68
2022/07/01 00:33:04;;;;;;;3.13;1.10;;;;;;;15.21;85.82;96004.22;5080466;28;20028;-68
2022/07/01 00:35:30;;;;;;;2.83;0.93;;;;;;;15.17;86.21;95999.25;5079300;28;20051;-67
2022/07/01 00:37:55;;;;;;;3.17;0.95;;;;;;;15.18;86.22;95990.31;5075493;28;20467;-68
2022/07/01 00:40:21;;;;;;;1.45;0.77;;;;;;;15.23;85.99;95986.34;5092754;28;20020;-68
2022/07/01 00:42:46;;;;;;;0.80;0.80;;;;;;;15.26;86.46;95986.00;5082434;28;20021;-68
2022/07/01 00:45:12;;;;;;;1.00;0.90;;;;;;;15.20;87.01;95992.78;5084618;28;20035;-68
2022/07/01 00:47:40;;;;;;;0.80;0.80;;;;;;;15.26;86.03;95997.44;5071861;28;20021;-68
2022/07/01 00:50:07;;;;;;;1.00;1.00;;;;;;;15.24;86.06;96001.25;5078743;28;20444;-67
2022/07/01 00:52:33;;;;;;;0.80;0.80;;;;;;;15.25;85.69;95993.16;5087923;28;20379;-68
2022/07/01 00:55:02;;;;;;;0.88;0.88;;;;;;;15.28;85.40;95994.63;5082356;28;20024;-69
2022/07/01 00:57:30;;;;;;;1.20;1.10;;;;;;;15.23;85.09;95999.59;5077774;28;20071;-68
2022/07/01 00:59:56;;;;;;;0.90;0.90;;;;;;;15.23;84.49;95996.94;5085753;28;20028;-68
2022/07/01 01:02:21;;;;;;;2.17;0.80;;;;;;;15.11;84.38;96001.72;5079450;28;20115;-68
2022/07/01 01:04:47;;;;;;;1.35;0.82;;;;;;;15.07;85.12;95993.25;5086556;28;20117;-68
2022/07/01 01:07:13;;;;;;;0.90;0.90;;;;;;;15.10;84.33;95978.84;5079747;28;20033;-68
2022/07/01 01:09:39;;;;;;;0.82;0.82;;;;;;;15.06;84.74;95973.03;5077059;28;20023;-68
2022/07/01 01:12:05;;;;;;;0.85;0.80;;;;;;;15.10;84.49;95976.22;5078072;28;20028;-68
2022/07/01 01:14:46;;;;;;;1.10;1.10;;;;;;;15.13;84.73;95982.00;5092901;28;20023;-68
2022/07/01 01:17:12;;;;;;;1.00;1.00;;;;;;;15.15;84.46;95995.94;5086330;28;21346;-68
2022/07/01 01:19:38;;;;;;;1.05;0.98;;;;;;;15.10;86.29;96002.72;5078711;28;20024;-68
2022/07/01 01:22:04;;;;;;;1.10;1.00;;;;;;;15.08;86.86;96000.22;5075778;28;20028;-68
2022/07/01 01:24:29;;;;;;;1.00;1.00;;;;;;;15.02;86.38;95991.09;5096410;28;20016;-68
2022/07/01 01:26:56;;;;;;;0.82;0.82;;;;;;;15.01;85.62;96000.03;5082901;28;20021;-68
2022/07/01 01:29:21;;;;;;;0.77;0.77;;;;;;;15.03;86.19;96002.53;5080388;28;20019;-68
2022/07/01 01:31:47;;;;;;;2.75;0.90;;;;;;;15.11;84.47;96001.72;5087851;28;20107;-68
2022/07/01 01:34:12;;;;;;;1.30;1.05;;;;;;;15.19;83.80;95993.78;5077807;28;20111;-68
2022/07/01 01:36:38;;;;;;;1.23;1.00;;;;;;;15.27;83.08;95993.81;5089897;28;20016;-68
2022/07/01 01:39:21;;;;;;;0.82;0.82;;;;;;;15.26;83.25;95997.44;5084644;28;20022;-68
2022/07/01 01:41:47;;;;;;;0.80;0.80;;;;;;;15.19;84.27;96001.72;5077951;28;20032;-68
2022/07/01 01:44:13;;;;;;;0.80;0.80;;;;;;;15.13;84.63;95995.25;5083123;28;20122;-68
2022/07/01 01:46:38;;;;;;;0.90;0.90;;;;;;;15.15;84.18;95993.28;5086732;28;20123;-68
2022/07/01 01:49:05;;;;;;;1.98;1.20;;;;;;;15.06;85.15;96002.22;5083304;28;20095;-68
2022/07/01 01:51:31;;;;;;;0.82;0.82;;;;;;;15.02;85.18;96007.00;5088216;28;20028;-68
2022/07/01 01:53:57;;;;;;;1.02;1.02;;;;;;;15.03;85.99;96015.78;5085551;28;20104;-67
2022/07/01 01:56:23;;;;;;;1.02;1.02;;;;;;;14.89;86.78;96017.25;5082795;28;20052;-67
2022/07/01 01:58:49;;;;;;;1.40;0.80;;;;;;;14.75;89.06;96027.47;5078440;28;20055;-67
2022/07/01 02:01:17;;;;;;;0.70;0.70;;;;;;;14.75;90.30;96016.03;5091933;28;20483;-67
2022/07/01 02:03:43;;;;;;;1.08;1.08;;;;;;;14.69;92.07;96017.47;5092099;28;20066;-67
2022/07/01 02:06:10;;;;;;;1.10;0.95;;;;;;;14.72;91.97;96017.19;5085466;28;20024;-67
2022/07/01 02:08:36;;;;;;;0.85;0.85;;;;;;;14.75;91.54;96019.50;5085523;28;20031;-68
2022/07/01 02:11:02;;;;;;;3.22;1.50;;;;;;;14.62;93.54;96027.06;5091694;28;20032;-67
2022/07/01 02:13:28;;;;;;;2.85;0.90;;;;;;;14.47;94.08;96029.44;5091707;28;20020;-68
2022/07/01 02:15:54;;;;;;;0.93;0.93;;;;;;;14.43;95.79;96031.59;5079196;28;20021;-67
2022/07/01 02:18:19;;;;;;;1.00;1.00;;;;;;;14.40;97.36;96018.69;5086998;28;20031;-68
2022/07/01 02:20:44;;;;;;;2.05;1.17;;;;;;;14.41;97.82;96019.50;5088132;28;20031;-68
2022/07/01 02:23:10;;;;;;;1.88;1.20;;;;;;;14.44;96.58;96021.81;5090352;28;20032;-68
2022/07/01 02:25:35;;;;;;;0.90;0.90;;;;;;;14.46;97.20;96033.09;5091710;28;20024;-67
2022/07/01 02:28:02;;;;;;;1.00;1.00;;;;;;;14.45;98.17;96031.44;5091739;28;20051;-67
2022/07/01 02:30:28;;;;;;;2.88;0.95;;;;;;;14.42;99.96;96021.16;5098777;28;20027;-67
2022/07/01 02:32:53;;;;;;;0.98;0.98;;;;;;;14.38;100.00;96028.59;5095483;28;20098;-67
2022/07/01 02:35:18;;;;;;;2.05;1.45;;;;;;;14.31;100.00;96020.47;5112061;28;20031;-67
2022/07/01 02:37:44;;;;;;;4.15;1.05;;;;;;;14.27;100.00;96013.81;5109289;28;20023;-67
2022/07/01 02:40:11;;;;;;;2.05;1.27;;;;;;;14.31;100.00;96017.81;5080097;28;20024;-67
2022/07/01 02:42:37;;;;;;;0.80;0.80;;;;;;;14.33;100.00;96023.78;5105437;28;20390;-67
2022/07/01 02:45:08;;;;;;;2.70;1.05;;;;;;;14.27;100.00;96023.56;5109554;28;20034;-67
2022/07/01 02:47:38;;;;;;;3.60;1.20;;;;;;;14.15;100.00;96015.91;5094089;28;20607;-68
2022/07/01 02:50:05;;;;;;;1.10;1.10;;;;;;;14.16;100.00;96012.28;5110823;28;20024;-68
2022/07/01 02:52:32;;;;;;;1.13;1.13;;;;;;;14.18;100.00;96004.16;5111595;28;20118;-68
2022/07/01 02:54:57;;;;;;;4.53;1.20;;;;;;;14.11;100.00;96019.00;5096698;28;20066;-67
2022/07/01 02:57:23;;;;;;;2.20;1.13;;;;;;;14.03;100.00;96025.91;5091305;28;20041;-68
2022/07/01 02:59:50;;;;;;;1.50;1.30;;;;;;;14.07;100.00;96026.44;5106285;28;20478;-68
2022/07/01 03:02:16;;;;;;;1.15;1.15;;;;;;;14.07;100.00;96017.66;5111569;28;20012;-68
2022/07/01 03:04:41;;;;;;;3.30;1.45;;;;;;;14.05;100.00;96015.16;5111601;28;20028;-68
2022/07/01 03:07:06;;;;;;;1.20;1.20;;;;;;;14.10;100.00;96006.75;5110935;28;20024;-67
2022/07/01 03:09:34;;;;;;;4.13;1.10;;;;;;;14.12;100.00;96013.53;5111107;28;20098;-67
2022/07/01 03:11:59;;;;;;;1.98;1.15;;;;;;;14.16;100.00;96017.56;5111242;28;20065;-67
2022/07/01 03:14:24;;;;;;;1.45;1.17;;;;;;;14.10;100.00;96026.09;5111239;28;20509;-67
2022/07/01 03:16:50;;;;;;;1.58;1.08;;;;;;;14.10;100.00;96028.75;5110994;28;20035;-67
2022/07/01 03:19:15;;;;;;;3.85;1.27;;;;;;;14.01;100.00;96030.50;5111397;28;20072;-67
2022/07/01 03:21:41;;;;;;;1.50;1.13;;;;;;;14.03;100.00;96025.91;5092126;28;20030;-68
2022/07/01 03:24:07;;;;;;;1.40;1.30;;;;;;;14.07;100.00;96025.59;5110042;28;20112;-67
2022/07/01 03:26:32;;;;;;;1.70;1.25;;;;;;;14.11;100.00;96029.59;5095987;28;20059;-68
2022/07/01 03:28:58;;;;;;;1.70;1.20;;;;;;;14.03;100.00;96023.25;5090312;28;20107;-68
2022/07/01 03:31:23;;;;;;;2.03;1.20;;;;;;;13.99;100.00;96024.53;5090116;28;20024;-67
2022/07/01 03:33:49;;;;;;;1.30;1.30;;;;;;;14.00;100.00;96028.84;5104695;28;20030;-67
2022/07/01 03:36:14;;;;;;;4.95;1.73;;;;;;;13.95;100.00;96015.25;5110768;28;20024;-67
2022/07/01 03:38:39;;;;;;;3.15;1.30;;;;;;;13.90;100.00;96012.25;5110510;28;20043;-67
2022/07/01 03:41:05;;;;;;;2.35;1.30;;;;;;;13.95;100.00;96009.16;5110303;28;20022;-67
2022/07/01 03:43:30;;;;;;;1.33;1.23;;;;;;;13.92;100.00;96006.78;5110657;28;20077;-67
2022/07/01 03:45:56;;;;;;;1.98;1.35;;;;;;;13.88;100.00;96001.00;5097835;28;20032;-67
2022/07/01 03:48:22;;;;;;;2.47;1.10;;;;;;;13.88;100.00;96004.47;5102002;28;20031;-67
2022/07/01 03:50:47;;;;;;;1.02;1.02;;;;;;;13.90;100.00;96001.66;5110705;28;20055;-66
2022/07/01 03:55:56;;;;;;;2.28;1.10;;;;;;;13.78;100.00;95997.59;5089438;28;20043;-67
2022/07/01 03:58:22;;;;;;;1.10;1.10;;;;;;;13.78;100.00;96000.25;5090071;28;20028;-68
2022/07/01 04:00:47;;;;;;;1.15;1.13;;;;;;;13.70;100.00;96006.31;5090230;28;20020;-67
2022/07/01 04:03:12;;;;;;;1.10;1.10;;;;;;;13.68;100.00;95998.53;5089730;28;20020;-68
2022/07/01 04:05:38;;;;;;;2.92;1.20;;;;;;;13.74;100.00;95997.91;5089801;28;20034;-68
2022/07/01 04:08:06;;;;;;;3.20;1.42;;;;;;;13.74;100.00;95992.63;5089716;28;20042;-68
2022/07/01 04:10:33;;;;;;;2.00;1.50;;;;;;;13.68;100.00;95997.69;5094323;28;20028;-68
2022/07/01 04:13:02;;;;;;;1.33;1.23;;;;;;;13.67;100.00;95980.16;5105824;28;20026;-67
2022/07/01 04:15:27;;;;;;;2.63;1.40;;;;;;;13.70;100.00;95975.41;5099252;28;20028;-67
2022/07/01 04:17:53;;;;;;;1.20;1.20;;;;;;;13.78;100.00;95979.09;5093509;28;20020;-68
2022/07/01 04:20:18;;;;;;;2.30;1.48;;;;;;;13.74;100.00;95960.88;5087728;28;20758;-68
2022/07/01 04:22:44;;;;;;;5.85;1.40;;;;;;;13.71;100.00;95955.09;5086954;28;20048;-68
2022/07/01 04:25:09;;;;;;;1.95;1.30;;;;;;;13.68;100.00;95961.50;5091879;28;20035;-67
2022/07/01 04:27:35;;;;;;;1.30;1.20;;;;;;;13.62;100.00;95964.78;5084024;28;20032;-69
2022/07/01 04:30:02;;;;;;;5.57;1.38;;;;;;;13.61;100.00;95961.28;5084034;28;20081;-68
2022/07/01 04:32:28;;;;;;;1.48;1.38;;;;;;;13.60;100.00;95974.69;5092406;28;20109;-68
2022/07/01 04:34:53;;;;;;;1.15;1.13;;;;;;;13.53;100.00;95974.47;5110091;28;20096;-69
2022/07/01 04:37:19;;;;;;;2.95;1.40;;;;;;;13.50;100.00;95950.13;5111202;28;20047;-69
2022/07/01 04:39:45;;;;;;;1.10;1.10;;;;;;;13.54;100.00;95954.13;5089154;28;20030;-69
2022/07/01 04:42:10;;;;;;;1.73;1.50;;;;;;;13.57;100.00;95946.72;5084191;28;20016;-68
2022/07/01 04:44:37;;;;;;;1.70;1.30;;;;;;;13.56;100.00;95930.97;5092087;28;20471;-68
2022/07/01 04:47:04;;;;;;;3.35;1.48;;;;;;;13.47;100.00;95916.88;5093305;28;20024;-69
2022/07/01 04:49:30;;;;;;;3.03;1.50;;;;;;;13.45;100.00;95897.69;5092882;28;20070;-68
2022/07/01 04:51:57;;;;;;;1.52;1.30;;;;;;;13.49;100.00;95904.34;5093532;28;20024;-68
2022/07/01 04:54:22;;;;;;;1.88;1.38;;;;;;;13.45;100.00;95914.41;5093678;28;20055;-68
2022/07/01 04:56:48;;;;;;;1.50;1.50;;;;;;;13.45;100.00;95902.97;5093263;28;20068;-68
2022/07/01 04:59:15;;;;;;;1.50;1.40;;;;;;;13.37;100.00;95890.47;5093589;28;20074;-68
2022/07/01 05:01:44;;;;;;;1.85;1.75;;;;;;;13.36;100.00;95857.09;5084874;28;20108;-68
2022/07/01 05:04:11;;;;;;;1.77;1.60;;;;;;;13.34;100.00;95848.50;5090980;28;20082;-67
2022/07/01 05:06:36;;;;;;;2.35;1.42;;;;;;;13.41;100.00;95836.31;5095181;28;20019;-68
2022/07/01 05:09:02;;;;;;;1.42;1.35;;;;;;;13.45;100.00;95850.06;5093271;28;20431;-67
2022/07/01 05:11:28;;;;;;;1.60;1.50;;;;;;;13.53;100.00;95844.00;5092903;28;20016;-68
2022/07/01 05:13:53;;;;;;;1.50;1.40;;;;;;;13.63;100.00;95831.53;5087733;28;20025;-67
2022/07/01 05:16:18;;;;;;;1.88;1.60;;;;;;;13.83;100.00;95876.25;5081854;28;20017;-67
2022/07/01 05:24:12;;;;;;;1.73;1.50;;;;;;;13.54;100.00;95858.91;5103463;28;20047;-67
2022/07/01 05:26:38;;;;;;;1.45;1.35;;;;;;;13.53;100.00;95897.75;5087990;28;20025;-68
2022/07/01 05:29:03;;;;;;;1.50;1.40;;;;;;;13.51;100.00;95888.31;5084578;28;20024;-67
2022/07/01 05:31:28;;;;;;;2.38;1.45;;;;;;;13.55;100.00;95897.59;5091962;28;20504;-67
2022/07/01 05:33:54;;;;;;;1.67;1.40;;;;;;;13.61;100.00;95904.91;5095470;28;20023;-67
2022/07/01 05:36:19;;;;;;;2.05;1.38;;;;;;;13.61;100.00;95902.28;5103127;28;20032;-68
2022/07/01 05:38:45;;;;;;;1.60;1.50;;;;;;;13.63;100.00;95891.53;5098035;28;20115;-68
2022/07/01 05:41:10;;;;;;;1.63;1.52;;;;;;;13.60;100.00;95905.91;5107811;28;20148;-68
2022/07/01 05:43:36;;;;;;;1.65;1.50;;;;;;;13.54;100.00;95909.16;5109658;28;20031;-68
2022/07/01 05:46:01;;;;;;;1.92;1.60;;;;;;;13.51;100.00;95904.16;5099422;28;20035;-67
2022/07/01 05:48:27;;;;;;;1.67;1.58;;;;;;;13.50;100.00;95902.50;5088093;28;20028;-67
2022/07/01 05:50:53;;;;;;;5.57;1.40;;;;;;;13.48;100.00;95912.41;5085637;28;20077;-67
2022/07/01 05:53:19;;;;;;;1.88;1.67;;;;;;;13.45;100.00;95927.63;5091179;28;20599;-65
2022/07/01 05:55:44;;;;;;;2.67;1.48;;;;;;;13.43;100.00;95926.94;5094926;28;22060;-66
2022/07/01 05:58:11;;;;;;;1.50;1.40;;;;;;;13.55;100.00;95934.63;5094180;28;20054;-67
2022/07/01 06:00:37;;;;;;;5.78;1.60;;;;;;;13.58;100.00;95939.59;5088943;28;20028;-67
2022/07/01 06:03:03;;;;;;;1.40;1.40;;;;;;;13.69;100.00;95942.00;5072445;28;20043;-67
2022/07/01 06:05:30;;;;;;;1.20;1.20;;;;;;;13.67;100.00;95936.03;5078043;28;20407;-66
2022/07/01 06:07:55;;;;;;;1.10;1.10;;;;;;;13.68;100.00;95942.13;5092495;28;20028;-66
2022/07/01 06:10:20;;;;;;;0.98;0.98;;;;;;;13.64;100.00;95954.03;5073753;28;20028;-67
2022/07/01 06:12:46;;;;;;;1.05;1.00;;;;;;;13.60;100.00;95966.75;5091908;28;20090;-69
2022/07/01 06:15:12;;;;;;;1.25;1.15;;;;;;;13.56;100.00;95958.28;5075280;28;20115;-67
2022/07/01 06:17:39;;;;;;;1.27;1.25;;;;;;;13.53;100.00;95952.44;5073847;28;20025;-67
2022/07/01 06:20:05;;;;;;;1.17;1.10;;;;;;;13.50;100.00;95947.47;5069823;28;20090;-68
2022/07/01 06:22:32;;;;;;;3.67;1.17;;;;;;;13.39;100.00;95951.16;5091767;28;20103;-68
2022/07/01 06:24:58;;;;;;;1.15;1.15;;;;;;;13.36;100.00;95952.28;5069703;28;20395;-67
2022/07/01 06:27:23;;;;;;;1.10;1.00;;;;;;;13.42;100.00;95951.69;5084735;28;20020;-68
2022/07/01 06:29:49;;;;;;;1.30;1.23;;;;;;;13.45;100.00;95953.22;5086166;28;20020;-68
2022/07/01 06:32:15;;;;;;;1.30;1.30;;;;;;;13.47;100.00;95959.19;5089428;28;20027;-68
2022/07/01 06:34:40;;;;;;;1.30;1.30;;;;;;;13.41;100.00;95957.97;5082018;28;20043;-68
2022/07/01 06:37:06;;;;;;;3.90;1.10;;;;;;;13.45;100.00;95954.06;5078720;28;20037;-66
2022/07/01 06:39:31;;;;;;;1.30;1.30;;;;;;;13.48;100.00;95960.03;5078015;28;20070;-66
2022/07/01 06:41:56;;;;;;;1.00;1.00;;;;;;;13.49;100.00;95961.69;5090999;28;20027;-66
2022/07/01 06:44:22;;;;;;;1.20;1.20;;;;;;;13.50;100.00;95958.91;5090339;28;20498;-66
2022/07/01 06:46:48;;;;;;;1.20;1.20;;;;;;;13.45;100.00;95964.63;5089036;28;20073;-66
2022/07/01 06:49:14;;;;;;;2.85;1.23;;;;;;;13.57;98.27;95959.09;5095005;28;20024;-66
2022/07/01 06:51:39;;;;;;;0.98;0.98;;;;;;;13.50;97.94;95958.06;5092703;28;20023;-66
2022/07/01 06:54:05;;;;;;;1.05;1.05;;;;;;;13.50;98.37;95969.47;5090512;28;20091;-67
2022/07/01 06:56:30;;;;;;;2.90;1.13;;;;;;;13.47;99.16;95975.06;5080565;28;20044;-66
2022/07/01 06:58:56;;;;;;;1.10;1.10;;;;;;;13.57;99.20;95967.03;5080716;28;20008;-66
2022/07/01 07:01:22;;;;;;;1.17;1.17;;;;;;;13.60;98.60;95972.03;5086275;28;20377;-66
2022/07/01 07:03:47;;;;;;;1.48;1.35;;;;;;;13.59;97.28;95983.56;5078585;28;20020;-67
2022/07/01 07:06:13;;;;;;;0.90;0.90;;;;;;;13.60;96.92;95972.84;5088160;28;20036;-66
2022/07/01 07:08:40;;;;;;;1.08;1.08;;;;;;;13.59;96.90;95978.28;5085036;28;20041;-66
2022/07/01 07:11:06;;;;;;;1.02;1.02;;;;;;;13.58;96.48;95985.41;5085899;28;20024;-66
2022/07/01 07:13:32;;;;;;;1.23;1.23;;;;;;;13.63;96.85;95979.66;5090569;28;20027;-66
2022/07/01 07:15:57;;;;;;;1.00;1.00;;;;;;;13.65;96.23;95979.50;5090075;28;20024;-66
2022/07/01 07:18:23;;;;;;;1.20;1.20;;;;;;;13.71;96.13;95987.66;5083458;28;20035;-67
2022/07/01 07:20:48;;;;;;;1.13;1.13;;;;;;;13.73;95.59;95990.97;5080510;28;20089;-68
2022/07/01 07:23:14;;;;;;;1.10;1.10;;;;;;;13.75;95.08;95994.28;5080458;28;20146;-68
2022/07/01 07:25:40;;;;;;;1.08;1.08;;;;;;;13.77;94.79;95990.66;5087670;28;20069;-68
2022/07/01 07:28:05;;;;;;;1.50;1.00;;;;;;;13.82;94.34;96001.63;5087381;28;20132;-68
2022/07/01 07:30:31;;;;;;;1.13;1.02;;;;;;;13.89;94.38;96003.47;5081485;28;20385;-68
2022/07/01 07:32:56;;;;;;;1.13;1.10;;;;;;;13.90;94.49;95999.84;5085326;28;20042;-68
2022/07/01 07:35:22;;;;;;;1.10;1.10;;;;;;;13.82;95.88;96004.28;5086284;28;20028;-68
2022/07/01 07:37:47;;;;;;;1.20;1.10;;;;;;;13.88;95.02;96003.66;5089470;28;20440;-68
2022/07/01 07:40:17;;;;;;;1.05;1.05;;;;;;;13.94;95.23;96005.66;5089936;28;20040;-67
2022/07/01 07:42:45;;;;;;;1.40;1.30;;;;;;;14.00;93.16;96007.69;5089601;28;20020;-68
2022/07/01 07:45:11;;;;;;;1.33;1.10;;;;;;;14.10;93.03;96009.41;5079159;28;20457;-68
2022/07/01 07:47:37;;;;;;;0.90;0.90;;;;;;;14.03;92.36;96011.84;5078889;28;20032;-67
2022/07/01 07:50:04;;;;;;;0.95;0.90;;;;;;;13.94;92.31;96013.59;5088873;28;20506;-68
2022/07/01 07:52:29;;;;;;;1.05;1.05;;;;;;;13.96;92.21;96011.63;5078682;28;20040;-68
2022/07/01 07:54:55;;;;;;;0.90;0.90;;;;;;;14.09;91.61;96018.34;5083645;28;20437;-67
2022/07/01 07:57:20;;;;;;;1.48;0.93;;;;;;;14.13;91.00;96017.03;5089596;28;20054;-67
2022/07/01 07:59:46;;;;;;;0.98;0.98;;;;;;;14.14;90.43;96010.75;5089504;28;20043;-67
2022/07/01 08:02:11;;;;;;;1.00;1.00;;;;;;;14.21;90.20;96018.91;5089025;28;20414;-68
2022/07/01 08:04:37;;;;;;;1.20;1.10;;;;;;;14.29;87.91;96027.72;5083929;28;20078;-68
2022/07/01 08:07:03;;;;;;;0.90;0.90;;;;;;;14.41;88.34;96024.78;5083775;28;20395;-68
2022/07/01 08:09:28;;;;;;;3.00;0.90;;;;;;;14.55;89.38;96026.03;5089325;28;20032;-67
2022/07/01 08:11:53;;;;;;;0.90;0.90;;;;;;;14.58;87.99;96031.84;5086136;28;20023;-67
2022/07/01 08:14:19;;;;;;;1.17;0.80;;;;;;;14.70;87.67;96024.44;5080652;28;20465;-67
2022/07/01 08:16:44;;;;;;;0.95;0.95;;;;;;;14.80;87.32;96028.78;5086058;28;20063;-68
2022/07/01 08:19:10;;;;;;;1.10;1.10;;;;;;;14.91;88.02;96033.81;5084629;28;20532;-68
2022/07/01 08:21:35;;;;;;;0.95;0.93;;;;;;;15.01;87.53;96028.38;5089497;28;20059;-67
2022/07/01 08:24:01;;;;;;;0.75;0.75;;;;;;;15.11;87.36;96031.72;5080737;28;20032;-67
2022/07/01 08:26:26;;;;;;;0.88;0.88;;;;;;;15.12;86.26;96036.03;5089206;28;20031;-68
2022/07/01 08:28:51;;;;;;;1.00;1.00;;;;;;;15.16;87.13;96034.72;5078926;28;20020;-68
2022/07/01 08:31:17;;;;;;;0.75;0.75;;;;;;;15.20;85.31;96035.22;5089280;28;20073;-68
2022/07/01 08:33:42;;;;;;;0.90;0.90;;;;;;;15.15;84.81;96038.38;5100095;28;20031;-68
2022/07/01 08:36:09;;;;;;;1.05;0.80;;;;;;;15.17;84.91;96039.03;5108417;28;20026;-68
2022/07/01 08:38:35;;;;;;;0.88;0.88;;;;;;;15.28;84.45;96045.00;5102725;28;20028;-68
2022/07/01 08:41:01;;;;;;;0.90;0.90;;;;;;;15.35;85.14;96039.91;5095682;28;20057;-68
2022/07/01 08:43:27;;;;;;;0.80;0.80;;;;;;;15.50;84.79;96045.38;5098728;28;20050;-68
2022/07/01 08:45:53;;;;;;;0.60;0.60;;;;;;;15.59;83.47;96044.41;5098629;28;20114;-68
2022/07/01 08:48:20;;;;;;;0.82;0.82;;;;;;;15.60;84.79;96046.06;5070673;28;20031;-68
2022/07/01 08:50:45;;;;;;;0.80;0.80;;;;;;;15.65;84.89;96051.72;5088955;28;20103;-68
2022/07/01 08:53:12;;;;;;;0.88;0.88;;;;;;;15.78;83.51;96043.25;5089076;28;20169;-68
2022/07/01 08:58:24;;;;;;;0.60;0.60;;;;;;;15.83;83.16;96046.22;5081123;28;20067;-68
2022/07/01 09:00:50;;;;;;;0.90;0.90;;;;;;;15.98;81.72;96054.38;5079834;28;20032;-68
2022/07/01 09:03:15;;;;;;;1.30;0.88;;;;;;;16.13;80.42;96059.03;5090067;28;20024;-68
2022/07/01 09:05:49;;;;;;;0.75;0.75;;;;;;;16.20;80.36;96054.69;5073916;28;20029;-68
2022/07/01 09:08:14;;;;;;;0.60;0.60;;;;;;;16.40;80.10;96056.97;5077372;28;20043;-68
2022/07/01 09:10:39;;;;;;;0.70;0.70;;;;;;;16.55;80.15;96049.13;5088606;28;20475;-68
2022/07/01 09:13:07;;;;;;;1.98;0.90;;;;;;;16.72;76.76;96047.28;5084690;28;20032;-68
2022/07/01 09:15:33;;;;;;;0.85;0.85;;;;;;;16.83;75.75;96054.03;5088940;28;20020;-68
2022/07/01 09:18:11;;;;;;;1.10;0.88;;;;;;;16.75;76.17;96057.56;5088343;28;20028;-67
2022/07/01 09:20:43;;;;;;;0.70;0.70;;;;;;;16.76;75.34;96052.06;5088718;28;20404;-68
2022/07/01 09:23:14;;;;;;;1.45;1.35;;;;;;;16.93;75.24;96056.50;5070386;28;20406;-68
2022/07/01 09:25:45;;;;;;;0.70;0.70;;;;;;;17.13;73.26;96059.56;5078762;28;20027;-68
2022/07/01 09:28:13;;;;;;;1.98;0.60;;;;;;;17.20;74.40;96057.88;5088911;28;20028;-68
2022/07/01 09:30:41;;;;;;;0.60;0.60;;;;;;;17.33;74.16;96063.47;5091941;28;20020;-68
2022/07/01 09:33:12;;;;;;;0.77;0.77;;;;;;;17.57;72.37;96064.31;5094018;28;20035;-68
2022/07/01 09:35:37;;;;;;;0.70;0.70;;;;;;;17.60;70.76;96065.81;5107267;28;20023;-68
2022/07/01 09:38:09;;;;;;;0.80;0.50;;;;;;;17.45;71.70;96069.22;5112836;28;20394;-68
2022/07/01 09:40:56;;;;;;;0.68;0.68;;;;;;;17.58;72.81;96065.16;5097402;28;20032;-68
2022/07/01 09:43:26;;;;;;;0.80;0.80;;;;;;;17.86;70.96;96067.28;5080319;28;20033;-68
2022/07/01 09:46:05;;;;;;;0.63;0.55;;;;;;;18.47;68.66;96064.56;5084023;28;20043;-68
2022/07/01 09:48:33;;;;;;;0.70;0.70;;;;;;;18.68;67.87;96062.19;5088290;28;20024;-68
2022/07/01 09:51:01;;;;;;;0.63;0.63;;;;;;;18.82;67.20;96061.34;5089018;28;20035;-68
2022/07/01 09:53:26;;;;;;;0.80;0.80;;;;;;;18.92;67.17;96063.75;5084705;28;20023;-69
2022/07/01 09:55:52;;;;;;;0.60;0.60;;;;;;;18.99;65.34;96066.53;5082403;28;20031;-68
2022/07/01 09:58:18;;;;;;;0.60;0.60;;;;;;;19.01;66.29;96056.50;5084243;28;20110;-69
2022/07/01 10:00:44;;;;;;;1.80;0.63;;;;;;;19.30;63.05;96057.44;5086861;28;20100;-68
2022/07/01 10:03:10;;;;;;;0.80;0.80;;;;;;;19.58;64.49;96067.44;5090018;28;20103;-68
2022/07/01 10:05:38;;;;;;;0.60;0.60;;;;;;;19.91;62.74;96072.28;5072655;28;20473;-68
2022/07/01 10:08:25;;;;;;;0.50;0.50;;;;;;;20.88;60.75;96074.44;5082558;28;20509;-68
2022/07/01 10:11:34;;;;;;;0.50;0.50;;;;;;;21.79;56.36;96063.66;5085893;28;20038;-69
2022/07/01 10:14:06;;;;;;;0.50;0.50;;;;;;;21.56;52.86;96076.34;5105041;28;20027;-68
2022/07/01 10:16:33;;;;;;;0.60;0.60;;;;;;;21.24;55.99;96067.19;5109122;28;20073;-69
2022/07/01 10:19:05;;;;;;;0.57;0.57;;;;;;;21.57;54.99;96066.47;5110053;28;20034;-68
2022/07/01 10:21:31;;;;;;;0.50;0.50;;;;;;;21.80;53.70;96071.50;5085950;28;20097;-68
2022/07/01 10:24:14;;;;;;;0.57;0.57;;;;;;;23.08;52.52;96070.59;5096243;28;20501;-68
2022/07/01 10:26:40;;;;;;;0.50;0.50;;;;;;;23.79;48.81;96068.00;5106026;28;20026;-69
2022/07/01 10:29:28;;;;;;;0.57;0.57;;;;;;;23.34;49.81;96072.38;5106916;28;20102;-69
2022/07/01 10:31:58;;;;;;;0.63;0.63;;;;;;;23.24;51.51;96071.97;5101560;28;20031;-68
2022/07/01 10:34:33;;;;;;;0.57;0.57;;;;;;;22.82;50.20;96070.44;5081209;28;20116;-68
2022/07/01 10:37:03;;;;;;;0.47;0.47;;;;;;;;;;5088462;28;20023;-67
2022/07/01 10:39:28;;;;;;;2.17;0.70;;;;;;;21.90;52.15;96068.41;5088238;28;20274;-68
2022/07/01 10:41:54;;;;;;;1.38;0.60;;;;;;;22.05;53.90;96060.16;5089257;28;20036;-67
2022/07/01 10:44:23;;;;;;;0.50;0.50;;;;;;;21.88;51.63;96060.59;5084866;28;20036;-68
2022/07/01 10:46:58;;;;;;;0.70;0.63;;;;;;;21.75;53.11;96064.06;5086307;28;20274;-68
2022/07/01 10:49:36;;;;;;;0.50;0.50;;;;;;;21.48;53.79;96065.84;5084999;28;20541;-68
2022/07/01 10:52:06;;;;;;;0.60;0.60;;;;;;;21.57;54.51;96066.47;5081178;28;20500;-68
2022/07/01 10:54:38;;;;;;;0.40;0.40;;;;;;;21.44;54.22;96060.06;5087636;28;20032;-69
2022/07/01 10:57:16;;;;;;;1.58;0.73;;;;;;;21.75;51.35;96057.88;5080675;28;20044;-69
2022/07/01 10:59:43;;;;;;;0.85;0.60;;;;;;;22.12;52.58;96049.47;5097450;28;20024;-69
2022/07/01 11:02:12;;;;;;;0.60;0.60;;;;;;;22.29;51.50;96056.06;5107271;28;20023;-68
2022/07/01 11:04:38;;;;;;;0.45;0.45;;;;;;;22.46;50.32;96052.94;5106182;28;20066;-69
2022/07/01 11:07:04;;;;;;;0.40;0.40;;;;;;;23.20;50.70;96043.88;5081388;28;20058;-68
2022/07/01 11:09:29;;;;;;;0.52;0.52;;;;;;;23.65;46.68;96041.19;5099272;28;20024;-69
2022/07/01 11:11:55;;;;;;;0.50;0.50;;;;;;;23.24;49.52;96042.41;5089891;28;20024;-69
2022/07/01 11:14:20;;;;;;;0.50;0.50;;;;;;;22.74;49.60;96043.84;5085648;28;20020;-69
2022/07/01 11:16:45;;;;;;;2.47;0.65;;;;;;;22.60;49.75;96041.19;5092144;28;20066;-69
2022/07/01 11:19:11;;;;;;;3.50;0.50;;;;;;;22.89;49.72;96040.91;5105698;28;20424;-69
2022/07/01 11:21:36;;;;;;;0.40;0.40;;;;;;;23.54;48.43;96037.34;5105253;28;20023;-69
2022/07/01 11:24:01;;;;;;;0.70;0.70;;;;;;;23.84;47.92;96035.91;5102718;28;20123;-69
2022/07/01 11:26:27;;;;;;;0.60;0.60;;;;;;;23.61;47.80;96037.31;5106615;28;20058;-69
2022/07/01 11:28:52;;;;;;;0.80;0.80;;;;;;;23.29;49.00;96034.56;5097966;28;20066;-70
2022/07/01 11:31:36;;;;;;;0.45;0.45;;;;;;;23.01;48.45;96044.59;5077779;28;20081;-69
2022/07/01 11:34:03;;;;;;;1.77;0.60;;;;;;;23.11;49.40;96040.63;5101873;28;20037;-69
2022/07/01 11:39:24;;;;;;;0.60;0.60;;;;;;;23.11;49.39;96044.13;5103639;28;20119;-69
2022/07/01 11:41:55;;;;;;;0.50;0.50;;;;;;;23.37;47.71;96039.72;5104238;28;20023;-69
2022/07/01 11:44:31;;;;;;;3.05;0.63;;;;;;;23.82;48.14;96038.81;5086766;28;20483;-69